Time;durP1;ratioP1;P1;durP2;ratioP2;P2;SDS_P1;SDS_P2;PMS_P1;PMS_P2;Temp;Humidity;BMP_temperature;BMP_pressure;BME280_temperature;BME280_humidity;BME280_pressure;Samples;Min_cycle;Max_cycle;Signal;HPM_P1;HPM_P2
2022/07/17 00:01:49;;;;;;;3.53;3.22;;;;;;;20.08;59.25;95186.94;5082601;28;20085;-81
2022/07/17 00:04:15;;;;;;;5.53;3.40;;;;;;;19.98;58.61;95181.09;5078751;28;20052;-81
2022/07/17 00:06:40;;;;;;;6.38;3.55;;;;;;;19.88;58.58;95167.31;5090062;28;20040;-81
2022/07/17 00:09:06;;;;;;;7.60;3.45;;;;;;;20.04;59.17;95192.75;5053072;28;20032;-81
2022/07/17 00:11:31;;;;;;;5.03;3.33;;;;;;;20.06;59.16;95202.13;5059188;28;20024;-81
2022/07/17 00:13:57;;;;;;;4.15;3.15;;;;;;;19.99;58.02;95189.81;5065890;28;20033;-81
2022/07/17 00:16:22;;;;;;;3.72;3.20;;;;;;;20.02;57.75;95190.28;5054894;28;20468;-81
2022/07/17 00:18:48;;;;;;;3.60;3.10;;;;;;;19.99;59.12;95201.19;5048852;28;20127;-81
2022/07/17 00:21:14;;;;;;;4.70;2.95;;;;;;;19.95;59.62;95194.63;5045822;28;20482;-81
2022/07/17 00:23:40;;;;;;;4.13;3.35;;;;;;;20.00;59.22;95209.91;5047088;28;20051;-81
2022/07/17 00:26:05;;;;;;;3.45;2.90;;;;;;;19.96;59.78;95209.44;5051733;28;20043;-81
2022/07/17 00:28:31;;;;;;;3.25;2.92;;;;;;;19.91;59.96;95197.78;5083262;28;20031;-81
2022/07/17 00:30:56;;;;;;;5.53;3.53;;;;;;;19.56;59.74;95171.78;5070231;28;20021;-80
2022/07/17 00:33:22;;;;;;;3.60;2.90;;;;;;;19.86;59.99;95211.47;5070973;28;20102;-80
2022/07/17 00:35:47;;;;;;;3.78;2.90;;;;;;;19.70;60.10;95180.81;5074601;28;20059;-80
2022/07/17 00:38:13;;;;;;;5.30;3.10;;;;;;;19.78;59.69;95185.19;5067550;28;20024;-80
2022/07/17 00:40:39;;;;;;;5.25;3.17;;;;;;;19.57;59.71;95152.34;5046648;28;20060;-79
2022/07/17 00:43:04;;;;;;;5.70;3.10;;;;;;;19.64;59.44;95168.28;5075495;28;20560;-80
2022/07/17 00:45:30;;;;;;;3.78;3.00;;;;;;;19.89;60.04;95205.84;5085971;28;20039;-80
2022/07/17 00:47:59;;;;;;;4.15;3.05;;;;;;;19.68;59.15;95174.88;5087712;28;20083;-81
2022/07/17 00:50:28;;;;;;;7.47;3.33;;;;;;;19.64;59.95;95171.75;5074528;28;20105;-81
2022/07/17 00:52:54;;;;;;;4.35;3.05;;;;;;;19.88;59.17;95204.22;5070643;28;20270;-80
2022/07/17 00:55:19;;;;;;;4.15;2.72;;;;;;;19.90;59.81;95212.78;5092010;28;20489;-81
2022/07/17 00:57:46;;;;;;;5.10;3.10;;;;;;;19.77;60.06;95205.44;5076404;28;20126;-81
2022/07/17 01:00:12;;;;;;;3.33;2.80;;;;;;;19.50;59.83;95169.00;5077634;28;20026;-81
2022/07/17 01:02:38;;;;;;;3.60;2.90;;;;;;;19.52;59.18;95165.22;5083963;28;20486;-79
2022/07/17 01:05:04;;;;;;;3.58;2.90;;;;;;;19.77;59.51;95209.91;5066863;28;20036;-80
2022/07/17 01:07:30;;;;;;;3.78;3.05;;;;;;;19.71;60.18;95214.06;5089477;28;20028;-80
2022/07/17 01:09:55;;;;;;;3.50;2.95;;;;;;;19.74;59.98;95218.97;5059142;28;20460;-80
2022/07/17 01:12:20;;;;;;;3.83;2.88;;;;;;;19.38;59.72;95168.59;5094334;28;20028;-77
2022/07/17 01:14:46;;;;;;;3.13;2.80;;;;;;;19.69;59.90;95226.56;5091301;28;20024;-80
2022/07/17 01:17:11;;;;;;;3.10;2.58;;;;;;;19.68;60.27;95224.13;5090626;28;20070;-80
2022/07/17 01:19:37;;;;;;;3.70;2.92;;;;;;;19.69;59.93;95216.03;5090528;28;20406;-80
2022/07/17 01:22:02;;;;;;;3.35;2.88;;;;;;;19.67;59.78;95218.03;5091831;28;20028;-81
2022/07/17 01:24:28;;;;;;;5.50;2.95;;;;;;;19.76;59.84;95227.53;5056029;28;20045;-81
2022/07/17 01:26:53;;;;;;;5.43;3.42;;;;;;;19.51;60.49;95186.47;5076266;28;20033;-81
2022/07/17 01:29:19;;;;;;;4.78;3.00;;;;;;;19.31;60.55;95165.84;5094292;28;20076;-80
2022/07/17 01:31:44;;;;;;;3.90;2.88;;;;;;;19.62;60.23;95213.25;5056970;28;20111;-80
2022/07/17 01:34:12;;;;;;;3.83;2.75;;;;;;;19.35;59.75;95168.94;5092110;28;20040;-81
2022/07/17 01:36:37;;;;;;;3.42;2.80;;;;;;;19.61;60.03;95210.78;5082026;28;20040;-80
2022/07/17 01:39:03;;;;;;;4.55;2.83;;;;;;;19.60;59.76;95214.41;5086666;28;20035;-81
2022/07/17 01:41:29;;;;;;;3.72;2.85;;;;;;;19.59;60.38;95212.78;5090418;28;20430;-80
2022/07/17 01:43:55;;;;;;;2.92;2.60;;;;;;;19.38;60.28;95179.94;5092234;28;20039;-80
2022/07/17 01:46:20;;;;;;;5.53;3.10;;;;;;;19.30;60.96;95179.16;5063611;28;20036;-81
2022/07/17 01:48:46;;;;;;;3.67;2.83;;;;;;;19.48;60.68;95224.53;5086848;28;20081;-80
2022/07/17 01:51:11;;;;;;;6.05;2.83;;;;;;;19.42;60.95;95223.41;5090445;28;20051;-81
2022/07/17 01:53:37;;;;;;;4.22;2.90;;;;;;;19.38;60.60;95229.16;5078612;28;20032;-80
2022/07/17 01:56:02;;;;;;;5.28;2.92;;;;;;;19.34;61.36;95226.06;5072922;28;20077;-80
2022/07/17 01:58:28;;;;;;;3.10;2.80;;;;;;;19.26;60.51;95220.00;5091787;28;20024;-80
2022/07/17 02:00:53;;;;;;;4.07;2.72;;;;;;;19.25;60.08;95216.56;5092987;28;20028;-80
2022/07/17 02:03:19;;;;;;;4.05;2.70;;;;;;;19.09;60.41;95185.84;5089724;28;20127;-80
2022/07/17 02:05:45;;;;;;;14.18;3.70;;;;;;;19.28;62.52;95225.91;5091497;28;20028;-80
2022/07/17 02:08:10;;;;;;;4.70;3.30;;;;;;;18.92;64.64;95195.59;5093013;28;20020;-80
2022/07/17 02:10:36;;;;;;;5.55;3.10;;;;;;;19.14;64.53;95230.91;5089363;28;20048;-80
2022/07/17 02:13:01;;;;;;;5.90;3.53;;;;;;;19.11;66.81;95228.63;5081755;28;20061;-80
2022/07/17 02:15:27;;;;;;;4.53;3.15;;;;;;;19.11;65.71;95233.88;5080775;28;20090;-80
2022/07/17 02:17:52;;;;;;;3.20;2.90;;;;;;;18.94;64.86;95211.22;5086025;28;20031;-80
2022/07/17 02:20:18;;;;;;;4.75;2.95;;;;;;;18.98;64.55;95229.16;5072593;28;20032;-80
2022/07/17 02:22:44;;;;;;;4.10;3.10;;;;;;;18.89;65.61;95229.34;5087876;28;20037;-80
2022/07/17 02:25:10;;;;;;;5.03;3.30;;;;;;;18.96;66.37;95235.56;5077880;28;20028;-80
2022/07/17 02:27:36;;;;;;;3.63;3.03;;;;;;;18.85;65.73;95217.50;5071347;28;20050;-80
2022/07/17 02:30:06;;;;;;;3.38;2.97;;;;;;;18.81;65.13;95210.94;5082738;28;20490;-80
2022/07/17 02:32:32;;;;;;;5.53;3.10;;;;;;;18.87;65.71;95226.06;5073389;28;20028;-80
2022/07/17 02:34:57;;;;;;;4.13;3.20;;;;;;;18.78;64.23;95208.63;5071207;28;20460;-80
2022/07/17 02:37:23;;;;;;;3.90;3.00;;;;;;;18.89;63.89;95226.72;5100080;28;20031;-80
2022/07/17 02:39:54;;;;;;;4.18;3.15;;;;;;;18.86;65.57;95227.03;5072005;28;20116;-80
2022/07/17 02:42:23;;;;;;;3.70;3.15;;;;;;;18.56;64.82;95183.81;5070844;28;20029;-80
2022/07/17 02:44:48;;;;;;;4.93;3.00;;;;;;;18.65;64.74;95215.19;5086138;28;20113;-80
2022/07/17 02:47:21;;;;;;;5.78;3.20;;;;;;;18.55;64.36;95198.75;5088310;28;20421;-80
2022/07/17 02:49:46;;;;;;;4.88;2.90;;;;;;;18.40;63.71;95180.22;5057403;28;20036;-80
2022/07/17 02:52:12;;;;;;;5.10;3.00;;;;;;;18.71;65.06;95230.31;5072766;28;20547;-80
2022/07/17 02:54:37;;;;;;;4.63;3.25;;;;;;;18.39;66.15;95201.44;5054837;28;20457;-80
2022/07/17 02:57:03;;;;;;;6.65;3.67;;;;;;;18.35;67.08;95215.88;5084371;28;20085;-80
2022/07/17 02:59:29;;;;;;;3.42;3.00;;;;;;;18.48;67.03;95232.81;5084630;28;20499;-80
2022/07/17 03:01:55;;;;;;;4.75;3.22;;;;;;;18.55;65.46;95246.13;5063029;28;20028;-80
2022/07/17 03:04:20;;;;;;;4.20;3.00;;;;;;;18.53;66.38;95250.75;5061998;28;20414;-80
2022/07/17 03:06:46;;;;;;;6.40;2.85;;;;;;;18.35;64.14;95231.66;5071483;28;20482;-80
2022/07/17 03:09:11;;;;;;;3.35;2.67;;;;;;;18.44;63.82;95249.06;5071952;28;20044;-80
2022/07/17 03:11:37;;;;;;;6.28;2.78;;;;;;;18.47;63.27;95246.13;5070328;28;20560;-80
2022/07/17 03:14:02;;;;;;;3.60;2.80;;;;;;;18.37;63.38;95232.34;5089787;28;20036;-80
2022/07/17 03:16:27;;;;;;;3.20;2.90;;;;;;;18.47;63.95;95260.13;5091709;28;20691;-80
2022/07/17 03:18:53;;;;;;;4.63;3.05;;;;;;;18.44;66.05;95267.50;5086906;28;20043;-80
2022/07/17 03:21:18;;;;;;;3.70;3.00;;;;;;;18.08;65.75;95223.94;5084831;28;20466;-80
2022/07/17 03:23:44;;;;;;;4.00;3.00;;;;;;;18.01;65.99;95212.41;5064677;28;20032;-80
2022/07/17 03:26:09;;;;;;;3.40;2.92;;;;;;;17.97;66.23;95223.41;5065355;28;20029;-80
2022/07/17 03:28:35;;;;;;;3.40;2.92;;;;;;;18.31;65.79;95274.06;5053525;28;20082;-80
2022/07/17 03:31:00;;;;;;;4.07;3.00;;;;;;;18.33;64.82;95270.44;5064815;28;20032;-80
2022/07/17 03:33:26;;;;;;;3.22;2.92;;;;;;;18.13;65.01;95228.69;5085143;28;20056;-80
2022/07/17 03:35:52;;;;;;;5.80;3.00;;;;;;;18.29;65.34;95265.50;5070855;28;20581;-80
2022/07/17 03:38:17;;;;;;;3.40;3.10;;;;;;;18.29;64.94;95260.25;5070774;28;20020;-79
2022/07/17 03:40:43;;;;;;;4.57;2.95;;;;;;;18.25;65.80;95258.94;5070695;28;20055;-80
2022/07/17 03:43:08;;;;;;;6.45;3.22;;;;;;;18.36;65.95;95280.63;5069881;28;20475;-78
2022/07/17 03:45:35;;;;;;;3.97;3.13;;;;;;;18.08;65.98;95231.00;5071673;28;20051;-80
2022/07/17 03:48:00;;;;;;;3.20;2.90;;;;;;;18.37;66.18;95293.63;5088841;28;20028;-80
2022/07/17 03:50:26;;;;;;;3.45;3.15;;;;;;;18.16;65.74;95252.03;5082800;28;20031;-80
2022/07/17 03:52:51;;;;;;;4.20;3.47;;;;;;;18.47;64.96;95298.72;5069716;28;20060;-80
2022/07/17 03:55:17;;;;;;;3.60;2.85;;;;;;;18.44;66.26;95301.69;5074912;28;20025;-80
2022/07/17 03:57:42;;;;;;;3.05;2.75;;;;;;;18.43;66.16;95303.50;5083781;28;20374;-78
2022/07/17 04:00:09;;;;;;;4.22;3.03;;;;;;;18.21;65.01;95243.66;5071178;28;20024;-80
2022/07/17 04:02:34;;;;;;;3.80;3.20;;;;;;;18.62;63.44;95299.72;5089502;28;20028;-80
2022/07/17 04:05:00;;;;;;;3.30;3.00;;;;;;;18.61;65.05;95305.13;5075877;28;20394;-80
2022/07/17 04:07:28;;;;;;;6.80;3.33;;;;;;;18.63;65.64;95311.06;5088634;28;20025;-79
2022/07/17 04:09:58;;;;;;;4.03;3.10;;;;;;;18.84;64.88;95321.13;5074495;28;20558;-81
2022/07/17 04:12:23;;;;;;;5.30;3.15;;;;;;;19.32;63.78;95316.78;5071464;28;20047;-80
2022/07/17 04:14:49;;;;;;;3.45;2.90;;;;;;;19.80;61.70;95280.72;5084332;28;20483;-80
2022/07/17 04:17:15;;;;;;;3.13;2.78;;;;;;;20.72;59.15;95317.72;5086942;28;20486;-77
2022/07/17 04:19:40;;;;;;;4.35;2.90;;;;;;;21.31;55.80;95322.31;5080297;28;20414;-81
2022/07/17 04:22:06;;;;;;;3.35;2.55;;;;;;;21.70;53.21;95293.00;5049269;28;20085;-79
2022/07/17 04:24:31;;;;;;;3.03;2.72;;;;;;;22.52;53.21;95313.91;5069123;28;20119;-81
2022/07/17 04:26:57;;;;;;;3.95;2.58;;;;;;;22.70;52.47;95275.56;5076681;28;20034;-82
2022/07/17 04:29:22;;;;;;;2.85;2.55;;;;;;;23.43;51.13;95297.31;5077360;28;20029;-81
2022/07/17 04:31:48;;;;;;;4.10;2.70;;;;;;;24.32;48.91;95333.63;5090487;28;20111;-81
2022/07/17 04:34:13;;;;;;;4.25;2.55;;;;;;;24.67;46.38;95314.97;5075785;28;20511;-82
2022/07/17 04:36:39;;;;;;;4.30;2.30;;;;;;;24.93;46.63;95292.91;5069085;28;20086;-83
2022/07/17 04:39:04;;;;;;;2.80;2.40;;;;;;;25.26;45.42;95300.88;5070335;28;20107;-82
2022/07/17 04:41:30;;;;;;;4.13;2.28;;;;;;;26.13;44.59;95335.28;5075934;28;20044;-82
2022/07/17 04:43:55;;;;;;;3.58;2.40;;;;;;;26.52;43.54;95328.97;5084646;28;20037;-82
2022/07/17 04:46:21;;;;;;;5.28;2.30;;;;;;;27.07;41.64;95318.53;5086577;28;20433;-82
2022/07/17 04:48:46;;;;;;;3.08;2.05;;;;;;;27.40;41.41;95333.47;5072394;28;20045;-84
2022/07/17 04:51:12;;;;;;;4.53;2.50;;;;;;;27.17;41.82;95310.91;5068917;28;20052;-86
2022/07/17 04:53:38;;;;;;;3.55;2.40;;;;;;;27.08;42.81;95338.84;5052454;28;20029;-85
2022/07/17 04:56:03;;;;;;;5.20;2.35;;;;;;;27.14;41.88;95337.16;5070315;28;20448;-84
2022/07/17 04:58:29;;;;;;;4.35;2.47;;;;;;;25.91;44.49;95306.31;5058926;28;20025;-83
2022/07/17 05:00:54;;;;;;;3.25;2.63;;;;;;;25.99;43.60;95345.16;5081631;28;20033;-85
2022/07/17 05:03:20;;;;;;;2.85;2.25;;;;;;;25.35;44.61;95299.66;5072337;28;20446;-87
2022/07/17 05:05:45;;;;;;;3.10;2.40;;;;;;;25.43;45.80;95325.19;5082737;28;20052;-86
2022/07/17 05:08:11;;;;;;;4.05;2.60;;;;;;;25.64;43.38;95324.16;5079533;28;20028;-86
2022/07/17 05:10:36;;;;;;;6.60;2.50;;;;;;;25.46;43.96;95334.59;5075276;28;20094;-86
2022/07/17 05:13:02;;;;;;;6.88;3.83;;;;;;;25.52;44.75;95353.22;5084815;28;20032;-85
2022/07/17 05:15:27;;;;;;;4.63;2.63;;;;;;;25.28;45.45;95337.91;5087415;28;20048;-86
2022/07/17 05:17:53;;;;;;;4.13;2.58;;;;;;;25.53;43.44;95359.38;5053995;28;20059;-85
2022/07/17 05:20:19;;;;;;;4.32;2.58;;;;;;;25.67;43.51;95354.84;5064424;28;20033;-85
2022/07/17 05:22:48;;;;;;;5.68;2.80;;;;;;;25.46;42.63;95316.81;5079410;28;20025;-88
2022/07/17 05:25:13;;;;;;;4.35;2.80;;;;;;;25.76;42.30;95365.03;5084336;28;20493;-84
2022/07/17 05:27:39;;;;;;;3.50;2.78;;;;;;;25.63;42.95;95327.81;5090930;28;20069;-84
2022/07/17 05:30:05;;;;;;;3.67;2.25;;;;;;;25.59;42.45;95327.41;5057025;28;20043;-84
2022/07/17 05:32:30;;;;;;;4.85;2.80;;;;;;;25.61;42.78;95320.06;5090874;28;20030;-85
2022/07/17 05:34:55;;;;;;;3.95;2.72;;;;;;;25.73;41.39;95328.22;5090991;28;20509;-84
2022/07/17 05:37:24;;;;;;;4.15;2.63;;;;;;;25.91;40.69;95361.34;5068357;28;20028;-85
2022/07/17 05:39:50;;;;;;;3.63;2.60;;;;;;;26.03;41.07;95362.34;5069438;28;20107;-84
2022/07/17 05:42:15;;;;;;;4.28;2.33;;;;;;;26.02;41.30;95347.38;5054036;28;20040;-83
2022/07/17 05:44:41;;;;;;;4.80;2.60;;;;;;;25.90;40.68;95331.25;5038640;28;20032;-83
2022/07/17 05:47:06;;;;;;;4.05;2.50;;;;;;;25.87;36.97;95318.38;5055618;28;20548;-83
2022/07/17 05:49:32;;;;;;;2.65;2.35;;;;;;;25.86;36.32;95330.06;5072078;28;20029;-84
2022/07/17 05:51:57;;;;;;;4.22;2.70;;;;;;;25.81;38.21;95325.31;5076444;28;20024;-83
2022/07/17 05:54:23;;;;;;;4.93;2.60;;;;;;;26.14;38.27;95351.03;5074245;28;20039;-83
2022/07/17 05:56:48;;;;;;;4.95;2.63;;;;;;;26.15;36.44;95365.97;5092355;28;20039;-83
2022/07/17 05:59:13;;;;;;;4.15;2.55;;;;;;;26.15;38.20;95354.50;5092408;28;20486;-84
2022/07/17 06:01:39;;;;;;;4.95;2.55;;;;;;;26.30;37.26;95358.56;5075337;28;20509;-84
2022/07/17 06:04:04;;;;;;;3.97;2.72;;;;;;;26.35;36.95;95368.56;5075303;28;20530;-83
2022/07/17 06:06:30;;;;;;;5.05;2.38;;;;;;;26.16;34.48;95341.00;5075558;28;20028;-84
2022/07/17 06:08:55;;;;;;;4.95;2.40;;;;;;;26.44;33.88;95371.78;5092256;28;20458;-84
2022/07/17 06:11:21;;;;;;;3.03;2.40;;;;;;;26.47;34.66;95374.06;5093609;28;20035;-84
2022/07/17 06:13:46;;;;;;;4.85;2.75;;;;;;;26.42;34.31;95350.72;5092307;28;20554;-84
2022/07/17 06:16:13;;;;;;;3.47;2.20;;;;;;;26.61;34.78;95374.84;5093556;28;20020;-84
2022/07/17 06:18:38;;;;;;;5.70;2.55;;;;;;;26.69;33.52;95372.72;5092276;28;20421;-83
2022/07/17 06:21:04;;;;;;;3.42;2.40;;;;;;;26.81;32.02;95374.72;5093460;28;20028;-83
2022/07/17 06:23:30;;;;;;;5.00;2.45;;;;;;;26.70;31.88;95339.72;5058779;28;20401;-84
2022/07/17 06:25:56;;;;;;;4.43;2.50;;;;;;;26.67;30.88;95340.16;5074359;28;20031;-84
2022/07/17 06:28:21;;;;;;;5.70;2.72;;;;;;;26.71;31.12;95352.00;5074978;28;20028;-85
2022/07/17 06:30:47;;;;;;;4.22;2.47;;;;;;;26.81;31.82;95377.38;5075554;28;20032;-84
2022/07/17 06:33:12;;;;;;;5.18;2.50;;;;;;;26.84;33.21;95374.28;5092941;28;20451;-84
2022/07/17 06:35:38;;;;;;;2.90;2.47;;;;;;;26.88;31.36;95367.47;5084478;28;20036;-84
2022/07/17 06:38:04;;;;;;;3.50;2.53;;;;;;;26.95;32.33;95377.06;5071510;28;20032;-84
2022/07/17 06:40:30;;;;;;;4.25;2.58;;;;;;;26.91;32.15;95351.91;5083278;28;20113;-83
2022/07/17 06:42:55;;;;;;;5.18;2.65;;;;;;;26.84;30.82;95334.31;5052379;28;20044;-82
2022/07/17 06:45:21;;;;;;;5.82;2.60;;;;;;;27.04;31.64;95350.16;5071160;28;20071;-80
2022/07/17 06:47:46;;;;;;;3.78;2.60;;;;;;;26.98;31.27;95346.50;5052155;28;20041;-82
2022/07/17 06:50:12;;;;;;;4.82;2.63;;;;;;;27.02;31.00;95337.03;5078149;28;20063;-82
2022/07/17 06:52:37;;;;;;;6.28;2.65;;;;;;;27.39;31.08;95377.19;5079801;28;20120;-80
2022/07/17 06:55:03;;;;;;;4.55;2.47;;;;;;;27.15;32.08;95320.94;5090837;28;20482;-82
2022/07/17 06:57:28;;;;;;;5.03;2.80;;;;;;;27.58;31.12;95368.19;5057132;28;20478;-81
2022/07/17 06:59:54;;;;;;;4.00;2.70;;;;;;;27.65;30.14;95370.78;5092481;28;20032;-81
2022/07/17 07:02:20;;;;;;;6.30;2.90;;;;;;;27.71;30.35;95366.44;5085738;28;20032;-85
2022/07/17 07:04:45;;;;;;;4.25;2.58;;;;;;;27.83;30.91;95378.88;5078058;28;20498;-84
2022/07/17 07:07:11;;;;;;;5.10;2.70;;;;;;;27.77;30.51;95357.53;5077868;28;20408;-79
2022/07/17 07:09:36;;;;;;;5.88;2.70;;;;;;;27.77;27.88;95374.34;5090863;28;20036;-87
2022/07/17 07:12:02;;;;;;;3.85;2.42;;;;;;;27.58;29.18;95367.34;5053661;28;20031;-88
2022/07/17 07:14:27;;;;;;;3.53;2.50;;;;;;;27.68;29.79;95380.22;5077595;28;20054;-89
2022/07/17 07:16:53;;;;;;;5.90;2.75;;;;;;;27.59;30.15;95353.81;5045834;28;20028;-88
2022/07/17 07:19:18;;;;;;;5.32;2.67;;;;;;;27.63;30.32;95349.66;5072689;28;20035;-82
2022/07/17 07:21:44;;;;;;;5.75;2.58;;;;;;;27.77;29.38;95365.53;5077796;28;20028;-89
2022/07/17 07:24:10;;;;;;;4.10;2.47;;;;;;;27.93;28.94;95383.69;5072161;28;20032;-85
2022/07/17 07:26:36;;;;;;;3.90;2.53;;;;;;;27.79;29.26;95380.31;5074508;28;20036;-85
2022/07/17 07:29:01;;;;;;;4.72;2.60;;;;;;;27.75;30.46;95383.63;5079022;28;20470;-86
2022/07/17 07:31:27;;;;;;;8.48;2.88;;;;;;;27.80;30.55;95381.13;5088001;28;20478;-84
2022/07/17 07:33:52;;;;;;;4.32;2.67;;;;;;;27.77;31.81;95381.56;5080580;28;20055;-84
2022/07/17 07:36:18;;;;;;;8.52;2.88;;;;;;;27.87;32.40;95389.09;5071690;28;20032;-84
2022/07/17 07:38:45;;;;;;;5.50;2.90;;;;;;;27.96;31.40;95391.25;5089303;28;20036;-84
2022/07/17 07:41:10;;;;;;;5.28;2.92;;;;;;;28.12;30.24;95386.38;5073707;28;20040;-83
2022/07/17 07:43:36;;;;;;;4.85;3.08;;;;;;;28.25;31.36;95388.84;5055389;28;20113;-83
2022/07/17 07:46:02;;;;;;;4.18;2.88;;;;;;;28.29;31.46;95390.06;5056251;28;20039;-79
2022/07/17 07:48:28;;;;;;;4.82;2.75;;;;;;;28.31;30.52;95390.66;5082410;28;20028;-83
2022/07/17 07:50:53;;;;;;;5.03;2.83;;;;;;;28.26;30.64;95382.50;5051206;28;20413;-82
2022/07/17 07:53:19;;;;;;;5.88;3.08;;;;;;;28.33;30.97;95391.22;5070551;28;20067;-84
2022/07/17 07:55:44;;;;;;;4.32;3.00;;;;;;;28.28;29.57;95389.25;5054549;28;20387;-80
2022/07/17 07:58:11;;;;;;;2.97;2.67;;;;;;;28.21;30.92;95393.03;5082410;28;20032;-80
2022/07/17 08:00:36;;;;;;;4.38;2.90;;;;;;;28.28;31.02;95396.44;5076081;28;20087;-82
2022/07/17 08:03:02;;;;;;;7.00;2.90;;;;;;;28.24;29.15;95393.38;5052579;28;20034;-80
2022/07/17 08:05:28;;;;;;;6.60;2.70;;;;;;;28.15;30.94;95385.91;5065210;28;20036;-79
2022/07/17 08:07:53;;;;;;;6.18;3.17;;;;;;;28.26;30.95;95383.31;5072968;28;20570;-81
2022/07/17 08:10:19;;;;;;;7.13;2.83;;;;;;;28.26;30.28;95372.63;5069786;28;20033;-79
2022/07/17 08:12:44;;;;;;;6.28;2.90;;;;;;;28.49;30.05;95398.66;5084123;28;20536;-80
2022/07/17 08:15:10;;;;;;;4.97;2.70;;;;;;;28.56;28.72;95392.44;5080193;28;20101;-81
2022/07/17 08:17:35;;;;;;;3.70;2.97;;;;;;;28.32;29.56;95386.13;5088811;28;20190;-80
2022/07/17 08:20:01;;;;;;;3.90;3.00;;;;;;;27.47;29.79;95384.91;5080889;28;20036;-80
2022/07/17 08:22:26;;;;;;;4.45;2.80;;;;;;;27.39;30.54;95401.19;5068950;28;20067;-81
2022/07/17 08:24:52;;;;;;;3.55;2.65;;;;;;;27.57;30.67;95392.41;5057618;28;20566;-81
2022/07/17 08:27:17;;;;;;;3.63;2.80;;;;;;;27.72;30.67;95397.41;5084822;28;20016;-83
2022/07/17 08:29:43;;;;;;;4.18;2.90;;;;;;;27.90;29.94;95400.13;5086993;28;20028;-83
2022/07/17 08:32:08;;;;;;;5.38;3.50;;;;;;;27.70;29.90;95383.47;5064215;28;20036;-83
2022/07/17 08:34:33;;;;;;;4.85;3.88;;;;;;;27.81;30.91;95380.13;5071817;28;20399;-83
2022/07/17 08:36:59;;;;;;;6.00;3.15;;;;;;;27.98;31.55;95381.16;5068792;28;20399;-85
2022/07/17 08:39:25;;;;;;;15.25;11.27;;;;;;;28.17;30.88;95384.66;5070788;28;20097;-83
2022/07/17 08:41:51;;;;;;;5.88;3.70;;;;;;;28.29;30.70;95379.38;5075939;28;20406;-83
2022/07/17 08:44:16;;;;;;;11.88;7.45;;;;;;;28.44;29.68;95377.16;5067855;28;20510;-78
2022/07/17 08:46:42;;;;;;;3.80;3.00;;;;;;;28.40;28.99;95357.25;5067893;28;20025;-85
2022/07/17 08:49:08;;;;;;;7.20;3.40;;;;;;;28.52;28.89;95378.69;5064313;28;20033;-83
2022/07/17 08:51:34;;;;;;;7.70;6.40;;;;;;;28.57;28.44;95378.84;5073947;28;20100;-85
2022/07/17 08:53:59;;;;;;;4.15;2.85;;;;;;;28.60;28.91;95390.94;5058365;28;20116;-83
2022/07/17 08:56:26;;;;;;;10.32;8.27;;;;;;;28.48;29.64;95375.66;5078473;28;20422;-83
2022/07/17 08:58:51;;;;;;;5.18;3.17;;;;;;;28.57;27.61;95383.38;5083802;28;20028;-83
2022/07/17 09:01:17;;;;;;;4.80;3.08;;;;;;;28.66;28.79;95382.00;5093791;28;20039;-84
2022/07/17 09:04:05;;;;;;;4.50;2.60;;;;;;;28.75;27.94;95380.66;5076073;28;20032;-82
2022/07/17 09:06:34;;;;;;;4.18;2.70;;;;;;;28.77;28.09;95372.41;5078643;28;20028;-83
2022/07/17 09:09:12;;;;;;;3.28;2.92;;;;;;;28.57;26.98;95370.03;5087515;28;20036;-82
2022/07/17 09:11:50;;;;;;;11.18;3.35;;;;;;;28.63;28.73;95366.44;5063026;28;20438;-80
2022/07/17 09:14:16;;;;;;;3.95;3.00;;;;;;;28.68;28.35;95359.38;5071156;28;20080;-82
2022/07/17 09:16:52;;;;;;;4.10;2.78;;;;;;;28.78;28.42;95369.53;5070646;28;20051;-81
2022/07/17 09:19:39;;;;;;;7.72;3.30;;;;;;;28.74;28.16;95342.41;5081286;28;20514;-81
2022/07/17 09:22:11;;;;;;;4.97;3.05;;;;;;;28.94;28.13;95362.69;5073717;28;20048;-82
2022/07/17 09:24:53;;;;;;;5.57;2.75;;;;;;;28.94;29.49;95365.38;5075066;28;20044;-81
2022/07/17 09:27:25;;;;;;;5.45;2.85;;;;;;;29.06;28.72;95363.59;5045970;28;20028;-82
2022/07/17 09:29:53;;;;;;;5.78;2.78;;;;;;;29.17;27.51;95370.00;5081390;28;20036;-82
2022/07/17 09:32:19;;;;;;;3.53;2.60;;;;;;;29.27;27.65;95366.75;5077821;28;20032;-80
2022/07/17 09:34:46;;;;;;;5.25;2.70;;;;;;;29.44;28.74;95369.56;5069653;28;20037;-80
2022/07/17 09:37:12;;;;;;;3.38;2.70;;;;;;;29.42;27.04;95364.47;5084585;28;20469;-81
2022/07/17 09:39:38;;;;;;;4.78;3.10;;;;;;;29.51;27.50;95372.97;5091184;28;20036;-81
2022/07/17 09:42:04;;;;;;;3.85;2.72;;;;;;;29.53;27.92;95370.84;5071021;28;20040;-82
2022/07/17 09:44:29;;;;;;;5.50;2.45;;;;;;;29.43;27.97;95363.41;5069802;28;20029;-84
2022/07/17 09:46:54;;;;;;;3.58;2.33;;;;;;;29.52;26.58;95364.69;5054928;28;20027;-81
2022/07/17 09:49:20;;;;;;;6.40;3.00;;;;;;;29.48;28.01;95368.06;5054728;28;20040;-81
2022/07/17 09:51:45;;;;;;;4.22;2.78;;;;;;;29.50;27.03;95366.75;5076641;28;20055;-81
2022/07/17 09:54:11;;;;;;;3.78;2.55;;;;;;;29.55;27.28;95360.72;5080805;28;20451;-80
2022/07/17 09:56:37;;;;;;;4.65;2.55;;;;;;;29.59;26.96;95364.59;5085976;28;20039;-80
2022/07/17 09:59:04;;;;;;;3.50;2.50;;;;;;;29.65;26.06;95361.00;5050692;28;20035;-80
2022/07/17 10:01:30;;;;;;;3.22;2.42;;;;;;;29.59;26.27;95360.03;5083678;28;20024;-80
2022/07/17 10:03:56;;;;;;;5.00;2.90;;;;;;;29.59;26.22;95364.59;5073377;28;20039;-79
2022/07/17 10:06:22;;;;;;;5.57;2.60;;;;;;;29.65;26.20;95360.19;5055445;28;20024;-80
2022/07/17 10:08:47;;;;;;;5.57;3.15;;;;;;;29.73;26.99;95366.00;5090044;28;20036;-79
2022/07/17 10:11:15;;;;;;;6.05;2.60;;;;;;;29.70;25.83;95360.28;5047719;28;20024;-79
2022/07/17 10:13:41;;;;;;;4.45;2.70;;;;;;;29.79;26.49;95356.22;5075029;28;20036;-80
2022/07/17 10:16:07;;;;;;;5.18;2.60;;;;;;;29.86;26.64;95366.78;5053057;28;20506;-80
2022/07/17 10:18:40;;;;;;;6.35;3.85;;;;;;;29.86;26.00;95353.41;5071212;28;20110;-80
2022/07/17 10:21:16;;;;;;;5.15;2.70;;;;;;;29.79;26.66;95358.91;5060883;28;20056;-79
2022/07/17 10:23:42;;;;;;;5.60;2.70;;;;;;;29.83;25.61;95347.47;5061110;28;20043;-79
2022/07/17 10:26:09;;;;;;;5.60;2.53;;;;;;;29.88;26.14;95356.69;5055178;28;20028;-79
2022/07/17 10:28:42;;;;;;;4.60;2.58;;;;;;;29.84;27.03;95346.44;5071191;28;20031;-79
2022/07/17 10:31:08;;;;;;;3.05;2.42;;;;;;;29.88;26.36;95354.00;5061268;28;20028;-79
2022/07/17 10:33:33;;;;;;;2.97;2.35;;;;;;;29.99;25.99;95358.53;5068863;28;20024;-79
2022/07/17 10:35:59;;;;;;;4.05;2.45;;;;;;;30.00;27.02;95349.44;5089652;28;20157;-79
2022/07/17 10:38:26;;;;;;;3.67;2.47;;;;;;;30.02;26.42;95350.81;5089643;28;20016;-79
2022/07/17 10:41:02;;;;;;;3.75;2.50;;;;;;;30.00;26.04;95349.44;5054792;28;20048;-79
2022/07/17 10:43:27;;;;;;;3.30;2.53;;;;;;;30.00;26.52;95344.88;5069444;28;20048;-80
2022/07/17 10:45:53;;;;;;;4.32;2.75;;;;;;;30.05;25.59;95352.22;5070388;28;20526;-79
2022/07/17 10:48:20;;;;;;;3.35;2.20;;;;;;;30.06;25.73;95348.47;5066427;28;20497;-79
2022/07/17 10:50:54;;;;;;;4.30;2.38;;;;;;;30.14;26.23;95345.44;5057645;28;20024;-80
2022/07/17 10:53:26;;;;;;;3.55;2.38;;;;;;;30.10;26.82;95341.63;5055510;28;20084;-79
2022/07/17 10:56:07;;;;;;;3.83;3.10;;;;;;;30.23;25.60;95343.25;5069482;28;20048;-80
2022/07/17 10:58:37;;;;;;;3.35;2.30;;;;;;;30.14;25.53;95350.78;5052963;28;20100;-79
2022/07/17 11:01:13;;;;;;;2.85;2.40;;;;;;;30.19;25.12;95339.38;5069636;28;20119;-80
2022/07/17 11:03:46;;;;;;;3.67;2.00;;;;;;;30.15;25.17;95338.25;5045506;28;20455;-79
2022/07/17 11:06:24;;;;;;;3.28;2.30;;;;;;;30.21;26.37;95335.41;5076217;28;20036;-79
2022/07/17 11:08:51;;;;;;;4.35;2.53;;;;;;;30.23;26.09;95333.34;5084440;28;20118;-79
2022/07/17 11:11:18;;;;;;;5.22;2.33;;;;;;;30.25;26.61;95331.22;5083514;28;20028;-79
2022/07/17 11:13:44;;;;;;;2.60;2.17;;;;;;;30.27;25.51;95323.78;5084084;28;20032;-79
2022/07/17 11:16:09;;;;;;;4.20;2.40;;;;;;;30.26;25.59;95327.50;5085455;28;20500;-78
2022/07/17 11:18:36;;;;;;;3.45;2.55;;;;;;;30.28;25.66;95329.94;5080466;28;20027;-79
2022/07/17 11:21:02;;;;;;;7.68;2.60;;;;;;;30.25;25.54;95317.03;5081736;28;20589;-78
2022/07/17 11:23:29;;;;;;;2.88;2.10;;;;;;;30.26;24.66;95324.03;5079525;28;20032;-79
2022/07/17 11:26:05;;;;;;;4.57;2.50;;;;;;;30.30;25.18;95327.03;5073542;28;20033;-79
2022/07/17 11:28:40;;;;;;;4.57;2.40;;;;;;;30.22;24.59;95325.53;5067811;28;20032;-79
2022/07/17 11:31:19;;;;;;;4.97;2.45;;;;;;;30.08;25.94;95310.75;5086628;28;20093;-80